Details From EPBY - BYDGOSZCZ Szwederowo
To EPRA - RADOM SADKOW
Flight Number -
Tags generated
Created
Modified
Stats Distance 158 nm / 293 km
Max Altitude 15,200 ft / 4,633 m
Waypoints 3
Social Downloads 0
Likes 0
Share VATSIM

Download

Looking for another format? Having issues loading an existing format? Contact us
Advertisement - Login to hide

Notes

Basic altitude profile: - Ascent Rate: 2500ft/min - Ascent Speed: 250kts - Cruise Altitude: 35000ft - Cruise Speed: 420kts - Descent Rate: 1500ft/min - Descent Speed: 250kts Options: - Use NATs: yes - Use PACOTS: yes - Use low airways: yes - Use high airways: yes

Route

EPBY LUMOK EPRA

ID Type Via Altitude Latitude Longitude Leg Dist Tot Dist Heading (true) Name
O EPBY APT - 0 ft / 0 m 53.10300˚ 17.96525˚ - 0 nm - BYDGOSZCZ Szwederowo
LUMOK FIX - 15,200 ft / 4,633 m 52.24417˚ 19.88500˚ 86 nm 86 nm 126° / 127° -
O EPRA APT - 0 ft / 0 m 51.38888˚ 21.21166˚ 71 nm 158 nm 136° / 137° RADOM SADKOW

Altitude Profile

Advertisement - Login to hide

EPBY

Details ICAO EPBY (BZG)
Name BYDGOSZCZ Szwederowo
Region Poland
Timezone Europe/Warsaw (UTC+1.0)
Stats Elevation 236 ft / 72 m (AMSL)
Location 53.102997° 17.965248°
Runways 4
Magnetic Variation 5.131° E

METAR

EPBY 110530Z 18011KT 9999 -RA FEW010 BKN035 02/01 Q0986

Decode

TAF

TAF EPBY 110530Z 1106/1206 19012KT 9999 BKN012 TEMPO 1106/1112 22015G26KT 4000 RASN BKN006 BECMG 1109/1111 BKN020 BECMG 1116/1118 BKN005

Decode

Departure Runways

ID Width Length Bearing (true) Bearing (mag) Surface Threshold Offset Overrun Length
03 328 ft / 100 m 1,938 ft / 591 m 30.00° 24.87° Grass 0 ft / 0 m 0 ft / 0 m
08 197 ft / 60 m 8,214 ft / 2,504 m 82.00° 76.87° Concrete 0 ft / 0 m 0 ft / 0 m
08L 328 ft / 100 m 2,135 ft / 651 m 85.00° 79.87° Grass 0 ft / 0 m 0 ft / 0 m
12 328 ft / 100 m 2,135 ft / 651 m 119.89° 114.76° Grass 0 ft / 0 m 0 ft / 0 m
21 328 ft / 100 m 1,938 ft / 591 m 210.00° 204.87° Grass 0 ft / 0 m 0 ft / 0 m
26 197 ft / 60 m 8,214 ft / 2,504 m 262.03° 256.90° Concrete 0 ft / 0 m 0 ft / 0 m
26R 328 ft / 100 m 2,135 ft / 651 m 265.00° 259.87° Grass 0 ft / 0 m 0 ft / 0 m
30 328 ft / 100 m 2,135 ft / 651 m 299.90° 294.77° Grass 0 ft / 0 m 0 ft / 0 m

EPRA

Details ICAO EPRA (QXR)
Name RADOM SADKOW
Region Poland
Timezone Europe/Warsaw (UTC+1.0)
Stats Elevation 623 ft / 190 m (AMSL)
Location 51.388880° 21.211661°
Runways 1
Magnetic Variation 5.735° E

METAR

EPRA 110530Z 19014KT CAVOK 03/M02 Q0993

Decode

TAF

Not found

Destination Runways

ID Width Length Bearing (true) Bearing (mag) Surface Threshold Offset Overrun Length
07 197 ft / 60 m 6,569 ft / 2,002 m 74.99° 69.25° Concrete 0 ft / 0 m 0 ft / 0 m
25 197 ft / 60 m 6,569 ft / 2,002 m 255.01° 249.27° Concrete 0 ft / 0 m 0 ft / 0 m